createdAt,value
2019-06-08T00:02:27.628Z,100522.34
2019-06-08T00:04:59.835Z,100514.05
2019-06-08T00:07:35.544Z,100519.27
2019-06-08T00:10:07.751Z,100515.34
2019-06-08T00:12:40.009Z,100521.02
2019-06-08T00:15:12.215Z,100507.86
2019-06-08T00:17:44.423Z,100507.87
2019-06-08T00:20:17.671Z,100515.77
2019-06-08T00:22:50.107Z,100506.11
2019-06-08T00:25:22.597Z,100506.97
2019-06-08T00:27:54.875Z,100512.11
2019-06-08T00:30:29.159Z,100511.12
2019-06-08T00:33:01.198Z,100506.23
2019-06-08T00:35:33.439Z,100513.19
2019-06-08T00:38:05.641Z,100515.38
2019-06-08T00:40:37.927Z,100511.08
2019-06-08T00:43:10.153Z,100518.55
2019-06-08T00:45:42.363Z,100516.40
2019-06-08T00:48:14.608Z,100529.98
2019-06-08T00:50:46.853Z,100523.83
2019-06-08T00:53:19.765Z,100531.17
2019-06-08T00:55:52.171Z,100535.07
2019-06-08T00:58:24.399Z,100526.36
2019-06-08T01:00:56.440Z,100541.67
2019-06-08T01:03:29.986Z,100528.14
2019-06-08T01:06:02.312Z,100533.86
2019-06-08T01:08:34.581Z,100536.55
2019-06-08T01:11:06.859Z,100536.56
2019-06-08T01:13:39.077Z,100540.05
2019-06-08T01:16:11.300Z,100558.46
2019-06-08T01:18:43.920Z,100541.85
2019-06-08T01:21:16.142Z,100542.74
2019-06-08T01:23:48.361Z,100549.31
2019-06-08T01:26:22.149Z,100552.39
2019-06-08T01:28:54.595Z,100560.27
2019-06-08T01:31:26.840Z,100562.92
2019-06-08T01:33:59.098Z,100561.16
2019-06-08T01:36:31.330Z,100550.66
2019-06-08T01:39:04.940Z,100576.96
2019-06-08T01:41:37.656Z,100552.89
2019-06-08T01:44:09.924Z,100550.72
2019-06-08T01:46:42.143Z,100556.44
2019-06-08T01:49:14.365Z,100551.63
2019-06-08T01:51:46.614Z,100551.61
2019-06-08T01:54:18.834Z,100567.38
2019-06-08T01:56:52.383Z,100545.88
2019-06-08T01:59:25.299Z,100556.38
2019-06-08T02:01:57.785Z,100560.80
2019-06-08T02:04:30.232Z,100563.42
2019-06-08T02:07:02.621Z,100571.27
2019-06-08T02:09:34.990Z,100566.03
2019-06-08T02:12:07.152Z,100591.85
2019-06-08T02:14:39.420Z,100582.20
2019-06-08T02:17:11.656Z,100587.04
2019-06-08T02:19:43.876Z,100578.70
2019-06-08T02:22:16.116Z,100582.17
2019-06-08T02:24:48.353Z,100597.94
2019-06-08T02:27:20.549Z,100597.06
2019-06-08T02:29:52.826Z,100596.20
2019-06-08T02:32:25.045Z,100584.35
2019-06-08T02:34:57.284Z,100580.37
2019-06-08T02:37:30.793Z,100590.00
2019-06-08T02:40:03.308Z,100579.05
2019-06-08T02:42:37.201Z,100591.76
2019-06-08T02:45:09.642Z,100583.41
2019-06-08T02:47:41.886Z,100590.40
2019-06-08T02:50:14.141Z,100587.36
2019-06-08T02:52:48.601Z,100596.12
2019-06-08T02:55:20.866Z,100609.70
2019-06-08T02:57:53.088Z,100598.77
2019-06-08T03:00:27.354Z,100595.25
2019-06-08T03:03:00.013Z,100589.13
2019-06-08T03:05:33.979Z,100611.86
2019-06-08T03:08:06.386Z,100605.73
2019-06-08T03:10:39.285Z,100604.83
2019-06-08T03:13:11.789Z,100599.59
2019-06-08T03:15:44.020Z,100606.13
2019-06-08T03:18:16.243Z,100601.30
2019-06-08T03:20:48.486Z,100606.12
2019-06-08T03:23:20.955Z,100612.23
2019-06-08T03:25:53.637Z,100622.33
2019-06-08T03:28:25.927Z,100623.22
2019-06-08T03:30:58.144Z,100619.27
2019-06-08T03:33:30.346Z,100614.87
2019-06-08T03:36:02.658Z,100616.17
2019-06-08T03:38:37.632Z,100628.42
2019-06-08T03:41:10.411Z,100617.94
2019-06-08T03:43:42.667Z,100621.44
2019-06-08T03:46:14.933Z,100629.73
2019-06-08T03:48:47.162Z,100624.91
2019-06-08T03:51:19.413Z,100633.67
2019-06-08T03:53:51.662Z,100632.82
2019-06-08T03:56:23.904Z,100647.27
2019-06-08T03:58:56.129Z,100646.81
2019-06-08T04:01:28.347Z,100650.30
2019-06-08T04:04:00.626Z,100644.16
2019-06-08T04:06:32.919Z,100645.90
2019-06-08T04:09:05.125Z,100666.03
2019-06-08T04:11:37.822Z,100663.86
2019-06-08T04:14:10.157Z,100667.73
2019-06-08T04:16:44.388Z,100670.36
2019-06-08T04:19:16.750Z,100662.94
2019-06-08T04:21:50.657Z,100671.22
2019-06-08T04:24:25.305Z,100690.47
2019-06-08T04:26:57.521Z,100691.34
2019-06-08T04:29:29.770Z,100689.61
2019-06-08T04:32:02.061Z,100679.53
2019-06-08T04:34:35.269Z,100703.16
2019-06-08T04:37:07.496Z,100702.71
2019-06-08T04:39:40.264Z,100707.53
2019-06-08T04:42:12.528Z,100720.18
2019-06-08T04:44:46.749Z,100754.58
2019-06-08T04:47:18.696Z,100737.65
2019-06-08T04:49:51.010Z,100738.84
2019-06-08T04:52:23.269Z,100735.78
2019-06-08T04:54:57.511Z,100737.22
2019-06-08T04:57:29.581Z,100737.25
2019-06-08T05:00:11.311Z,100736.82
2019-06-08T05:02:39.122Z,100721.14
2019-06-08T05:05:11.106Z,100729.46
2019-06-08T05:07:44.274Z,100742.15
2019-06-08T05:10:17.287Z,100736.48
2019-06-08T05:12:50.310Z,100747.86
2019-06-08T05:15:22.677Z,100745.69
2019-06-08T05:17:54.994Z,100740.90
2019-06-08T05:20:38.245Z,100744.38
2019-06-08T05:23:01.296Z,100767.14
2019-06-08T05:25:33.495Z,100776.27
2019-06-08T05:28:05.792Z,100772.33
2019-06-08T05:30:39.309Z,100778.00
2019-06-08T05:33:12.640Z,100781.48
2019-06-08T05:35:45.498Z,100787.22
2019-06-08T05:38:17.903Z,100803.00
2019-06-08T05:40:50.111Z,100786.82
2019-06-08T05:43:23.427Z,100797.32
2019-06-08T05:45:55.640Z,100807.84
2019-06-08T05:48:27.881Z,100799.91
2019-06-08T05:51:03.992Z,100807.72
2019-06-08T05:53:35.247Z,100820.31
2019-06-08T05:56:07.496Z,100822.81
2019-06-08T05:58:39.878Z,100812.14
2019-06-08T06:01:13.129Z,100826.18
2019-06-08T06:03:46.546Z,100826.22
2019-06-08T06:06:18.870Z,100835.47
2019-06-08T06:08:51.373Z,100835.92
2019-06-08T06:11:23.627Z,100833.27
2019-06-08T06:13:56.148Z,100848.12
2019-06-08T06:16:28.502Z,100852.98
2019-06-08T06:19:00.566Z,100855.17
2019-06-08T06:21:32.872Z,100857.80
2019-06-08T06:24:05.054Z,100852.91
2019-06-08T06:26:37.290Z,100863.75
2019-06-08T06:29:09.681Z,100854.11
2019-06-08T06:31:41.965Z,100864.56
2019-06-08T06:34:14.147Z,100869.03
2019-06-08T06:36:47.694Z,100867.27
2019-06-08T06:39:20.025Z,100890.05
2019-06-08T06:41:52.308Z,100895.48
2019-06-08T06:44:24.641Z,100891.23
2019-06-08T06:46:56.925Z,100896.12
2019-06-08T06:49:30.694Z,100909.23
2019-06-08T06:52:02.805Z,100904.31
2019-06-08T06:54:35.012Z,100906.86
2019-06-08T06:57:07.224Z,100928.63
2019-06-08T06:59:39.491Z,100925.81
2019-06-08T07:02:11.714Z,100935.22
2019-06-08T07:04:43.912Z,100942.74
2019-06-08T07:07:16.210Z,100939.77
2019-06-08T07:09:48.450Z,100956.97
2019-06-08T07:12:20.737Z,100943.64
2019-06-08T07:14:53.310Z,100942.31
2019-06-08T07:17:25.571Z,100957.35
2019-06-08T07:19:58.920Z,100969.09
2019-06-08T07:22:31.302Z,100940.97
2019-06-08T07:25:03.983Z,100947.98
2019-06-08T07:27:36.241Z,100964.48
2019-06-08T07:30:08.507Z,100972.26
2019-06-08T07:32:40.899Z,100973.39
2019-06-08T07:35:13.124Z,100978.22
2019-06-08T07:37:45.359Z,100976.62
2019-06-08T07:40:17.603Z,100985.48
2019-06-08T07:42:51.475Z,100976.26
2019-06-08T07:45:23.862Z,100983.61
2019-06-08T07:47:56.158Z,100979.88
2019-06-08T07:50:28.375Z,100982.27
2019-06-08T07:53:00.633Z,100977.33
2019-06-08T07:55:32.870Z,100984.59
2019-06-08T07:58:05.081Z,100993.39
2019-06-08T08:00:37.382Z,100996.14
2019-06-08T08:03:09.653Z,100990.52
2019-06-08T08:05:41.970Z,100999.22
2019-06-08T08:08:14.168Z,101010.69
2019-06-08T08:10:46.466Z,101014.72
2019-06-08T08:13:18.747Z,101014.20
2019-06-08T08:15:51.166Z,101023.19
2019-06-08T08:18:23.960Z,101020.28
2019-06-08T08:21:00.957Z,101010.13
2019-06-08T08:23:30.220Z,101018.27
2019-06-08T08:26:02.494Z,101020.06
2019-06-08T08:28:34.732Z,101018.80
2019-06-08T08:31:07.805Z,101026.25
2019-06-08T08:33:40.932Z,101017.32
2019-06-08T08:36:13.189Z,101023.27
2019-06-08T08:38:47.706Z,101025.35
2019-06-08T08:41:19.592Z,101023.89
2019-06-08T08:43:53.199Z,101022.80
2019-06-08T08:46:28.580Z,101041.33
2019-06-08T08:49:09.093Z,101034.94
2019-06-08T08:51:34.633Z,101032.42
2019-06-08T08:54:08.432Z,101040.28
2019-06-08T08:56:41.036Z,101043.05
2019-06-08T08:59:13.257Z,101055.41
2019-06-08T09:01:45.488Z,101055.14
2019-06-08T09:04:18.586Z,101047.45
2019-06-08T09:06:52.419Z,101065.45
2019-06-08T09:09:25.357Z,101055.08
2019-06-08T09:12:02.297Z,101068.42
2019-06-08T09:14:31.511Z,101072.19
2019-06-08T09:17:04.192Z,101065.63
2019-06-08T09:19:38.362Z,101075.84
2019-06-08T09:22:10.997Z,101073.42
2019-06-08T09:24:43.268Z,101081.45
2019-06-08T09:27:17.753Z,101088.34
2019-06-08T09:29:49.539Z,101104.43
2019-06-08T09:32:23.112Z,101115.51
2019-06-08T09:35:02.344Z,101132.02
2019-06-08T09:37:33.445Z,101131.09
2019-06-08T09:40:05.686Z,101134.41
2019-06-08T09:42:37.936Z,101144.70
2019-06-08T09:45:11.552Z,101167.78
2019-06-08T09:47:43.809Z,101153.91
2019-06-08T09:50:18.515Z,101162.41
2019-06-08T09:53:02.487Z,101163.16
2019-06-08T09:55:24.565Z,101165.72
2019-06-08T09:58:03.962Z,101177.05
2019-06-08T10:00:31.325Z,101182.22
2019-06-08T10:03:06.163Z,101180.45
2019-06-08T10:05:38.871Z,101178.05
2019-06-08T10:08:11.409Z,101193.19
2019-06-08T10:10:43.622Z,101207.85
2019-06-08T10:13:18.895Z,101215.47
2019-06-08T10:15:51.564Z,101217.70
2019-06-08T10:18:24.274Z,101222.70
2019-06-08T10:20:59.595Z,101219.74
2019-06-08T10:23:34.392Z,101209.72
2019-06-08T10:26:05.283Z,101218.09
2019-06-08T10:28:39.094Z,101213.97
2019-06-08T10:31:11.411Z,101209.14
2019-06-08T10:33:43.726Z,101217.46
2019-06-08T10:36:18.134Z,101223.94
2019-06-08T10:38:50.082Z,101241.66
2019-06-08T10:41:22.329Z,101236.80
2019-06-08T10:43:57.150Z,101245.20
2019-06-08T10:46:29.603Z,101240.86
2019-06-08T10:49:02.386Z,101261.97
2019-06-08T10:51:40.165Z,101258.95
2019-06-08T10:54:11.462Z,101264.41
2019-06-08T10:56:44.407Z,101269.71
2019-06-08T10:59:18.571Z,101277.84
2019-06-08T11:01:50.710Z,101289.13
2019-06-08T11:04:23.186Z,101301.30
2019-06-08T11:06:58.032Z,101303.02
2019-06-08T11:09:29.558Z,101312.73
2019-06-08T11:12:03.213Z,101329.00
2019-06-08T11:14:38.210Z,101323.70
2019-06-08T11:17:10.984Z,101333.36
2019-06-08T11:19:43.636Z,101327.16
2019-06-08T11:22:17.651Z,101332.11
2019-06-08T11:24:51.817Z,101337.88
2019-06-08T11:27:28.513Z,101349.33
2019-06-08T11:30:09.847Z,101355.89
2019-06-08T11:32:38.356Z,101376.37
2019-06-08T11:35:12.362Z,101378.42
2019-06-08T11:37:44.347Z,101386.60
2019-06-08T11:40:18.163Z,101383.88
2019-06-08T11:42:50.514Z,101389.77
2019-06-08T11:45:22.799Z,101397.62
2019-06-08T11:47:54.915Z,101399.14
2019-06-08T11:50:27.388Z,101395.44
2019-06-08T11:53:00.623Z,101402.13
2019-06-08T11:55:33.613Z,101390.67
2019-06-08T11:58:07.548Z,101396.82
2019-06-08T12:00:39.824Z,101395.55
2019-06-08T12:03:13.044Z,101388.55
2019-06-08T12:05:47.749Z,101387.28
2019-06-08T12:08:20.952Z,101394.64
2019-06-08T12:10:53.486Z,101411.20
2019-06-08T12:13:27.819Z,101416.81
2019-06-08T12:15:59.829Z,101418.61
2019-06-08T12:18:32.269Z,101439.16
2019-06-08T12:21:05.587Z,101418.67
2019-06-08T12:23:38.226Z,101426.58
2019-06-08T12:26:10.794Z,101430.77
2019-06-08T12:28:43.039Z,101439.50
2019-06-08T12:31:21.412Z,101434.57
2019-06-08T12:33:50.527Z,101448.24
2019-06-08T12:36:22.840Z,101481.95
2019-06-08T12:38:55.863Z,101459.17
2019-06-08T12:41:31.180Z,101427.30
2019-06-08T12:44:02.054Z,101450.66
2019-06-08T12:46:34.327Z,101460.05
2019-06-08T12:49:09.494Z,101454.15
2019-06-08T12:51:40.547Z,101443.77
2019-06-08T12:54:14.218Z,101435.88
2019-06-08T12:56:47.948Z,101431.24
2019-06-08T12:59:22.825Z,101428.05
2019-06-08T13:01:54.573Z,101445.54
2019-06-08T13:04:28.662Z,101483.69
2019-06-08T13:07:00.638Z,101469.11
2019-06-08T13:09:32.886Z,101461.77
2019-06-08T13:12:07.736Z,101463.52
2019-06-08T13:14:39.138Z,101453.67
2019-06-08T13:17:12.766Z,101440.26
2019-06-08T13:19:45.323Z,101438.56
2019-06-08T13:22:22.604Z,101472.83
2019-06-08T13:24:51.517Z,101475.28
2019-06-08T13:27:23.746Z,101484.14
2019-06-08T13:29:57.764Z,101487.19
2019-06-08T13:32:29.902Z,101488.41
2019-06-08T13:35:02.304Z,101485.16
2019-06-08T13:37:35.495Z,101498.19
2019-06-08T13:40:08.199Z,101492.00
2019-06-08T13:42:41.166Z,101494.81
2019-06-08T13:45:14.043Z,101488.34
2019-06-08T13:47:50.214Z,101489.81
2019-06-08T13:50:22.799Z,101494.46
2019-06-08T13:52:56.076Z,101497.83
2019-06-08T13:55:47.686Z,101518.33
2019-06-08T13:58:03.574Z,101517.58
2019-06-08T14:00:38.441Z,101523.38
2019-06-08T14:03:11.026Z,101513.68
2019-06-08T14:05:43.842Z,101513.31
2019-06-08T14:08:19.153Z,101508.91
2019-06-08T14:10:51.140Z,101511.88
2019-06-08T14:13:31.146Z,101511.80
2019-06-08T14:16:00.152Z,101511.67
2019-06-08T14:18:34.306Z,101517.43
2019-06-08T14:21:06.335Z,101523.94
2019-06-08T14:23:41.349Z,101517.91
2019-06-08T14:26:12.515Z,101527.40
2019-06-08T14:28:44.850Z,101524.78
2019-06-08T14:31:19.705Z,101532.92
2019-06-08T14:33:52.083Z,101537.78
2019-06-08T14:36:25.825Z,101535.97
2019-06-08T14:39:01.876Z,101535.52
2019-06-08T14:41:32.231Z,101532.44
2019-06-08T14:44:04.671Z,101548.78
2019-06-08T14:46:40.819Z,101562.06
2019-06-08T14:49:10.863Z,101552.31
2019-06-08T14:51:43.200Z,101578.44
2019-06-08T14:54:18.519Z,101581.06
2019-06-08T14:56:49.665Z,101577.17
2019-06-08T14:59:22.565Z,101578.08
2019-06-08T15:01:55.835Z,101585.14
2019-06-08T15:04:34.144Z,101577.60
2019-06-08T15:07:02.038Z,101581.12
2019-06-08T15:09:34.348Z,101592.16
2019-06-08T15:12:09.032Z,101579.34
2019-06-08T15:14:41.577Z,101588.17
2019-06-08T15:17:13.796Z,101592.99
2019-06-08T15:19:47.558Z,101593.01
2019-06-08T15:22:20.845Z,101594.38
2019-06-08T15:24:53.470Z,101594.41
2019-06-08T15:27:26.497Z,101582.05
2019-06-08T15:29:59.784Z,101597.06
2019-06-08T15:32:35.084Z,101613.39
2019-06-08T15:35:08.074Z,101614.28
2019-06-08T15:37:40.924Z,101618.70
2019-06-08T15:40:13.371Z,101611.22
2019-06-08T15:42:48.734Z,101618.29
2019-06-08T15:45:22.081Z,101624.91
2019-06-08T15:47:54.331Z,101634.13
2019-06-08T15:50:26.580Z,101627.92
2019-06-08T15:53:00.159Z,101635.45
2019-06-08T15:55:34.399Z,101638.50
2019-06-08T15:58:08.775Z,101642.48
2019-06-08T16:00:40.567Z,101639.80
2019-06-08T16:03:12.776Z,101639.30
2019-06-08T16:05:45.046Z,101639.80
2019-06-08T16:08:17.254Z,101641.62
2019-06-08T16:10:49.479Z,101653.15
2019-06-08T16:13:21.892Z,101648.66
2019-06-08T16:15:54.115Z,101666.84
2019-06-08T16:18:27.373Z,101660.67
2019-06-08T16:20:59.650Z,101668.17
2019-06-08T16:23:31.960Z,101657.16
2019-06-08T16:26:04.179Z,101661.53
2019-06-08T16:28:38.652Z,101661.55
2019-06-08T16:31:11.158Z,101669.88
2019-06-08T16:33:44.335Z,101662.75
2019-06-08T16:36:16.891Z,101679.06
2019-06-08T16:38:52.639Z,101677.80
2019-06-08T16:41:23.091Z,101679.23
2019-06-08T16:43:55.521Z,101691.58
2019-06-08T16:46:30.036Z,101684.06
2019-06-08T16:49:02.376Z,101699.53
2019-06-08T16:51:35.802Z,101682.18
2019-06-08T16:54:08.103Z,101701.74
2019-06-08T16:56:40.367Z,101694.66
2019-06-08T16:59:12.617Z,101699.49
2019-06-08T17:01:44.926Z,101703.75
2019-06-08T17:04:17.200Z,101717.53
2019-06-08T17:06:49.439Z,101712.48
2019-06-08T17:09:21.716Z,101717.40
2019-06-08T17:11:54.611Z,101714.82
2019-06-08T17:14:27.502Z,101717.67
2019-06-08T17:17:00.346Z,101729.80
2019-06-08T17:19:34.122Z,101725.51
2019-06-08T17:22:07.067Z,101744.46
2019-06-08T17:24:40.736Z,101733.94
2019-06-08T17:27:26.410Z,101746.42
2019-06-08T17:29:48.200Z,101746.70
2019-06-08T17:32:20.437Z,101753.52
2019-06-08T17:34:52.693Z,101748.61
2019-06-08T17:37:24.898Z,101757.97
2019-06-08T17:39:57.103Z,101748.69
2019-06-08T17:42:29.350Z,101754.31
2019-06-08T17:45:03.668Z,101750.78
2019-06-08T17:47:36.369Z,101755.67
2019-06-08T17:50:08.747Z,101763.60
2019-06-08T17:52:41.130Z,101756.94
2019-06-08T17:55:13.539Z,101765.20
2019-06-08T17:57:52.715Z,101762.09
2019-06-08T18:00:19.845Z,101776.00
2019-06-08T18:02:52.047Z,101767.84
2019-06-08T18:05:24.268Z,101770.01
2019-06-08T18:07:57.852Z,101775.48
2019-06-08T18:10:30.264Z,101786.50
2019-06-08T18:13:02.530Z,101789.25
2019-06-08T18:15:34.732Z,101783.52
2019-06-08T18:18:08.677Z,101799.91
2019-06-08T18:20:42.421Z,101799.91
2019-06-08T18:23:17.390Z,101798.22
2019-06-08T18:25:49.720Z,101788.08
2019-06-08T18:28:22.105Z,101789.37
2019-06-08T18:30:54.361Z,101796.87
2019-06-08T18:33:28.806Z,101803.11
2019-06-08T18:36:01.098Z,101803.26
2019-06-08T18:38:33.320Z,101818.47
2019-06-08T18:41:08.365Z,101809.13
2019-06-08T18:43:41.519Z,101811.57
2019-06-08T18:46:14.726Z,101822.47
2019-06-08T18:48:49.325Z,101825.48
2019-06-08T18:51:21.027Z,101828.42
2019-06-08T18:54:07.408Z,101825.86
2019-06-08T18:56:27.586Z,101832.49
2019-06-08T18:59:00.169Z,101838.84
2019-06-08T19:01:32.443Z,101837.36
2019-06-08T19:04:04.715Z,101832.78
2019-06-08T19:06:39.177Z,101835.17
2019-06-08T19:09:12.319Z,101851.28
2019-06-08T19:11:46.341Z,101848.08
2019-06-08T19:14:20.882Z,101848.44
2019-06-08T19:16:54.740Z,101853.11
2019-06-08T19:19:31.059Z,101852.00
2019-06-08T19:22:00.643Z,101854.46
2019-06-08T19:24:33.026Z,101852.06
2019-06-08T19:27:07.695Z,101863.30
2019-06-08T19:29:41.795Z,101862.22
2019-06-08T19:32:13.180Z,101857.56
2019-06-08T19:34:52.332Z,101874.52
2019-06-08T19:37:19.301Z,101881.39
2019-06-08T19:39:51.950Z,101880.13
2019-06-08T19:42:37.037Z,101883.78
2019-06-08T19:45:04.878Z,101890.98
2019-06-08T19:47:32.122Z,101885.94
2019-06-08T19:50:04.398Z,101892.91
2019-06-08T19:52:41.063Z,101889.73
2019-06-08T19:55:10.563Z,101905.78
2019-06-08T19:57:43.347Z,101904.73
2019-06-08T20:00:17.887Z,101909.06
2019-06-08T20:02:53.374Z,101913.23
2019-06-08T20:05:23.518Z,101921.37
2019-06-08T20:07:57.450Z,101924.75
2019-06-08T20:10:29.701Z,101929.17
2019-06-08T20:13:02.017Z,101938.67
2019-06-08T20:15:34.245Z,101942.75
2019-06-08T20:18:06.469Z,101950.12
2019-06-08T20:20:38.767Z,101942.58
2019-06-08T20:23:10.995Z,101949.38
2019-06-08T20:25:43.249Z,101958.97
2019-06-08T20:28:17.331Z,101960.06
2019-06-08T20:30:50.686Z,101961.89
2019-06-08T20:33:22.946Z,101966.50
2019-06-08T20:35:55.182Z,101968.63
2019-06-08T20:38:37.871Z,101967.58
2019-06-08T20:41:01.352Z,101973.36
2019-06-08T20:43:33.597Z,101975.60
2019-06-08T20:46:07.989Z,101976.02
2019-06-08T20:48:39.771Z,101979.80
2019-06-08T20:51:12.038Z,101986.33
2019-06-08T20:53:44.512Z,101982.75
2019-06-08T20:56:17.383Z,101983.55
2019-06-08T20:58:51.373Z,101984.83
2019-06-08T21:01:23.840Z,101987.39
2019-06-08T21:03:57.165Z,101983.59
2019-06-08T21:06:29.595Z,101985.80
2019-06-08T21:09:01.818Z,101985.48
2019-06-08T21:11:37.935Z,101987.97
2019-06-08T21:14:09.624Z,101992.70
2019-06-08T21:16:44.652Z,102000.26
2019-06-08T21:19:17.455Z,102003.20
2019-06-08T21:21:52.093Z,102005.24
2019-06-08T21:24:23.841Z,102010.39
2019-06-08T21:27:00.167Z,102004.55
2019-06-08T21:29:47.160Z,102007.83
2019-06-08T21:32:05.102Z,102013.49
2019-06-08T21:34:38.049Z,102015.12
2019-06-08T21:37:10.485Z,102011.05
2019-06-08T21:39:42.857Z,102022.20
2019-06-08T21:42:15.183Z,102021.17
2019-06-08T21:44:49.024Z,102019.28
2019-06-08T21:47:21.444Z,102022.80
2019-06-08T21:49:54.233Z,102014.35
2019-06-08T21:52:26.556Z,102016.87
2019-06-08T21:54:59.396Z,102025.14
2019-06-08T21:57:36.968Z,102026.84
2019-06-08T22:00:27.112Z,102024.25
2019-06-08T22:02:44.506Z,102027.70
2019-06-08T22:05:17.825Z,102033.01
2019-06-08T22:07:50.205Z,102030.32
2019-06-08T22:10:23.419Z,102033.84
2019-06-08T22:12:58.047Z,102032.53
2019-06-08T22:15:29.791Z,102035.11
2019-06-08T22:18:03.236Z,102034.94
2019-06-08T22:20:38.097Z,102045.36
2019-06-08T22:23:09.565Z,102042.22
2019-06-08T22:25:41.646Z,102048.08
2019-06-08T22:28:13.890Z,102046.66
2019-06-08T22:30:48.082Z,102049.69
2019-06-08T22:33:20.044Z,102050.59
2019-06-08T22:35:53.018Z,102057.24
2019-06-08T22:38:26.476Z,102057.14
2019-06-08T22:41:00.279Z,102060.17
2019-06-08T22:43:32.640Z,102058.93
2019-06-08T22:46:04.903Z,102065.00
2019-06-08T22:48:38.428Z,102062.58
2019-06-08T22:51:13.096Z,102063.22
2019-06-08T22:53:47.683Z,102067.05
2019-06-08T22:56:19.458Z,102074.91
2019-06-08T22:58:51.798Z,102075.23
2019-06-08T23:01:24.262Z,102076.06
2019-06-08T23:04:00.224Z,102071.51
2019-06-08T23:06:30.441Z,102075.47
2019-06-08T23:09:04.126Z,102080.59
2019-06-08T23:11:37.584Z,102085.42
2019-06-08T23:14:13.458Z,102080.38
2019-06-08T23:16:47.073Z,102073.91
2019-06-08T23:19:18.885Z,102076.23
2019-06-08T23:21:51.125Z,102079.97
2019-06-08T23:24:23.322Z,102085.91
2019-06-08T23:26:55.843Z,102086.28
2019-06-08T23:29:28.063Z,102089.12
2019-06-08T23:32:02.623Z,102089.19
2019-06-08T23:34:34.267Z,102088.41
2019-06-08T23:37:12.734Z,102084.48
2019-06-08T23:39:42.755Z,102085.20
2019-06-08T23:42:14.977Z,102089.08
2019-06-08T23:44:47.243Z,102082.95
2019-06-08T23:47:19.439Z,102094.61
2019-06-08T23:49:51.684Z,102091.50
2019-06-08T23:52:23.936Z,102095.12
2019-06-08T23:54:59.441Z,102097.09
2019-06-08T23:57:31.219Z,102095.66
